createdAt,value
2019-01-09T09:24:47.143Z,96258.51
2019-01-09T09:27:54.219Z,96264.94
2019-01-09T09:31:01.485Z,96265.36
2019-01-09T09:34:08.515Z,96269.09
2019-01-09T09:37:15.652Z,96271.61
2019-01-09T09:40:23.415Z,96277.86
2019-01-09T09:43:30.462Z,96281.25
2019-01-09T09:46:40.504Z,96277.84
2019-01-09T09:49:47.557Z,96275.36
2019-01-09T09:52:54.538Z,96285.83
2019-01-09T09:56:01.594Z,96279.09
2019-01-09T09:59:08.686Z,96287.47
2019-01-09T10:02:15.967Z,96287.09
2019-01-09T10:05:22.981Z,96291.27
2019-01-09T10:08:30.109Z,96292.55
2019-01-09T10:11:37.434Z,96294.20
2019-01-09T10:14:44.633Z,96293.76
2019-01-09T10:17:51.710Z,96293.76
2019-01-09T10:20:58.780Z,96293.34
2019-01-09T10:24:05.741Z,96291.16
2019-01-09T10:27:13.168Z,96294.09
2019-01-09T10:30:20.851Z,96289.42
2019-01-09T10:33:27.877Z,96278.59
2019-01-09T10:36:35.317Z,96286.92
2019-01-09T10:39:42.490Z,96285.64
2019-01-09T10:42:49.555Z,96284.82
2019-01-09T10:45:56.584Z,96281.80
2019-01-09T10:49:03.825Z,96273.49
2019-01-09T10:52:13.676Z,96286.06
2019-01-09T10:55:20.939Z,96286.41
2019-01-09T10:58:27.957Z,96289.41
2019-01-09T11:01:37.741Z,96281.05
2019-01-09T11:04:44.942Z,96289.87
2019-01-09T11:07:51.950Z,96283.92
2019-01-09T11:11:00.142Z,96285.64
2019-01-09T11:14:09.339Z,96278.97
2019-01-09T11:17:16.235Z,96281.89
2019-01-09T11:20:23.611Z,96277.27
2019-01-09T11:23:30.669Z,96275.64
2019-01-09T11:26:40.361Z,96273.08
2019-01-09T11:29:47.619Z,96272.22
2019-01-09T11:32:54.626Z,96273.95
2019-01-09T11:36:01.724Z,96279.45
2019-01-09T11:39:10.711Z,96281.08
2019-01-09T11:42:17.754Z,96275.23
2019-01-09T11:45:25.886Z,96273.94
2019-01-09T11:48:33.428Z,96272.35
2019-01-09T11:51:40.617Z,96284.48
2019-01-09T11:54:48.197Z,96273.16
2019-01-09T11:57:55.220Z,96275.58
2019-01-09T12:01:02.321Z,96273.13
2019-01-09T12:04:09.335Z,96278.03
2019-01-09T12:07:16.481Z,96275.97
2019-01-09T12:10:30.127Z,96288.56
2019-01-09T12:13:34.800Z,96273.06
2019-01-09T12:16:41.966Z,96281.80
2019-01-09T12:19:50.713Z,96283.89
2019-01-09T12:22:57.767Z,96291.08
2019-01-09T12:26:04.763Z,96286.84
2019-01-09T12:29:11.760Z,96291.11
2019-01-09T12:32:19.061Z,96295.63
2019-01-09T12:35:26.111Z,96298.64
2019-01-09T12:38:36.128Z,96304.09
2019-01-09T12:41:43.139Z,96303.28
2019-01-09T12:44:50.166Z,96301.66
2019-01-09T12:47:57.213Z,96311.67
2019-01-09T12:51:04.325Z,96310.06
2019-01-09T12:54:11.374Z,96318.89
2019-01-09T12:57:18.371Z,96318.03
2019-01-09T13:00:30.413Z,96325.61
2019-01-09T13:03:37.474Z,96331.08
2019-01-09T13:06:44.586Z,96336.48
2019-01-09T13:09:51.728Z,96336.52
2019-01-09T13:12:58.827Z,96341.97
2019-01-09T13:16:05.967Z,96344.06
2019-01-09T13:19:12.986Z,96345.31
2019-01-09T13:22:20.149Z,96352.02
2019-01-09T13:25:27.181Z,96350.29
2019-01-09T13:28:35.815Z,96354.47
2019-01-09T13:31:42.831Z,96355.33
2019-01-09T13:34:50.142Z,96355.73
2019-01-09T13:37:57.199Z,96361.60
2019-01-09T13:41:04.478Z,96367.09
2019-01-09T13:44:13.109Z,96362.95
2019-01-09T13:47:20.194Z,96369.25
2019-01-09T13:50:27.243Z,96368.45
2019-01-09T13:53:34.817Z,96370.16
2019-01-09T13:56:42.505Z,96368.92
2019-01-09T13:59:49.617Z,96379.78
2019-01-09T14:02:56.617Z,96377.73
2019-01-09T14:06:03.876Z,96385.70
2019-01-09T14:09:11.798Z,96395.75
2019-01-09T14:12:18.946Z,96394.50
2019-01-09T14:15:26.189Z,96401.23
2019-01-09T14:18:33.788Z,96402.46
2019-01-09T14:21:40.811Z,96404.58
2019-01-09T14:24:47.859Z,96413.80
2019-01-09T14:27:54.803Z,96421.32
2019-01-09T14:31:01.853Z,96424.30
2019-01-09T14:34:08.777Z,96417.17
2019-01-09T14:37:19.057Z,96423.88
2019-01-09T14:40:29.005Z,96428.50
2019-01-09T14:43:36.094Z,96433.95
2019-01-09T14:46:43.090Z,96433.56
2019-01-09T14:49:50.119Z,96440.25
2019-01-09T14:52:57.100Z,96452.43
2019-01-09T14:56:04.129Z,96458.73
2019-01-09T14:59:14.119Z,96453.70
2019-01-09T15:02:21.317Z,96454.95
2019-01-09T15:05:28.402Z,96460.01
2019-01-09T15:08:37.628Z,96458.34
2019-01-09T15:11:44.592Z,96469.66
2019-01-09T15:14:51.597Z,96470.52
2019-01-09T15:17:58.553Z,96473.85
2019-01-09T15:21:06.720Z,96474.69
2019-01-09T15:24:13.852Z,96480.13
2019-01-09T15:27:20.962Z,96481.38
2019-01-09T15:30:31.152Z,96478.88
2019-01-09T15:33:38.170Z,96484.77
2019-01-09T15:36:45.135Z,96488.53
2019-01-09T15:39:52.385Z,96493.16
2019-01-09T15:42:59.408Z,96497.35
2019-01-09T15:46:06.680Z,96504.91
2019-01-09T15:49:13.666Z,96507.38
2019-01-09T15:52:20.726Z,96513.64
2019-01-09T15:55:27.754Z,96505.63
2019-01-09T15:58:34.897Z,96508.18
2019-01-09T16:01:42.835Z,96518.67
2019-01-09T16:04:49.876Z,96515.67
2019-01-09T16:07:56.918Z,96514.04
2019-01-09T16:11:04.536Z,96527.06
2019-01-09T16:14:11.773Z,96532.08
2019-01-09T16:17:18.894Z,96535.44
2019-01-09T16:20:25.878Z,96539.14
2019-01-09T16:23:36.705Z,96546.72
2019-01-09T16:26:43.791Z,96550.50
2019-01-09T16:29:50.817Z,96553.39
2019-01-09T16:32:57.824Z,96550.41
2019-01-09T16:36:07.048Z,96560.54
2019-01-09T16:39:14.114Z,96555.05
2019-01-09T16:42:21.612Z,96559.70
2019-01-09T16:45:33.419Z,96557.57
2019-01-09T16:48:40.443Z,96557.95
2019-01-09T16:51:47.501Z,96568.07
2019-01-09T16:54:55.012Z,96572.23
2019-01-09T16:58:02.088Z,96571.80
2019-01-09T17:01:09.331Z,96575.16
2019-01-09T17:04:16.454Z,96575.97
2019-01-09T17:07:25.151Z,96578.09
2019-01-09T17:10:33.012Z,96579.77
2019-01-09T17:13:45.567Z,96581.45
2019-01-09T17:16:52.787Z,96598.28
2019-01-09T17:19:59.927Z,96593.63
2019-01-09T17:23:08.281Z,96589.47
2019-01-09T17:26:19.428Z,96596.16
2019-01-09T17:29:28.299Z,96594.48
2019-01-09T17:32:36.599Z,96589.42
2019-01-09T17:35:45.868Z,96597.85
2019-01-09T17:38:53.064Z,96596.59
2019-01-09T17:42:00.100Z,96612.95
2019-01-09T17:45:08.863Z,96614.20
2019-01-09T17:48:15.938Z,96617.53
2019-01-09T17:51:23.171Z,96620.93
2019-01-09T17:54:30.211Z,96620.53
2019-01-09T17:57:37.471Z,96626.80
2019-01-09T18:00:44.556Z,96644.42
2019-01-09T18:03:54.884Z,96638.95
2019-01-09T18:07:02.397Z,96636.05
2019-01-09T18:10:17.347Z,96649.49
2019-01-09T18:13:24.483Z,96652.83
2019-01-09T18:16:32.269Z,96658.28
2019-01-09T18:19:39.404Z,96656.20
2019-01-09T18:22:47.126Z,96661.63
2019-01-09T18:25:54.177Z,96661.66
2019-01-09T18:29:01.344Z,96676.73
2019-01-09T18:32:28.168Z,96660.81
2019-01-09T18:36:37.293Z,96680.49
2019-01-09T18:41:01.450Z,96673.40
2019-01-09T18:44:25.718Z,96665.40
2019-01-09T18:48:16.898Z,96675.47
2019-01-09T18:52:09.228Z,96673.41
2019-01-09T18:55:16.399Z,96687.67
2019-01-09T18:58:24.708Z,96683.91
2019-01-09T19:01:32.149Z,96692.70
2019-01-09T19:04:40.172Z,96693.97
2019-01-09T19:07:48.330Z,96701.11
2019-01-09T19:10:57.536Z,96704.04
2019-01-09T19:14:04.749Z,96709.91
2019-01-09T19:17:13.688Z,96719.53
2019-01-09T19:20:21.037Z,96720.80
2019-01-09T19:23:28.616Z,96715.75
2019-01-09T19:26:35.895Z,96728.79
2019-01-09T19:29:42.976Z,96730.45
2019-01-09T19:32:50.148Z,96740.52
2019-01-09T19:35:57.426Z,96747.22
2019-01-09T19:39:06.786Z,96746.41
2019-01-09T19:42:13.884Z,96748.93
2019-01-09T19:45:21.020Z,96761.06
2019-01-09T19:48:28.598Z,96766.95
2019-01-09T19:51:35.740Z,96767.80
2019-01-09T19:54:42.835Z,96768.64
2019-01-09T19:57:50.041Z,96771.17
2019-01-09T20:00:57.219Z,96772.83
2019-01-09T20:04:04.369Z,96781.64
2019-01-09T20:07:12.996Z,96784.16
2019-01-09T20:10:26.399Z,96788.77
2019-01-09T20:13:33.997Z,96790.85
2019-01-09T20:16:41.009Z,96792.95
2019-01-09T20:19:48.390Z,96798.40
2019-01-09T20:22:55.556Z,96801.77
2019-01-09T20:26:03.675Z,96807.20
2019-01-09T20:29:10.834Z,96810.16
2019-01-09T20:32:18.022Z,96816.02
2019-01-09T20:35:25.141Z,96816.45
2019-01-09T20:38:32.255Z,96819.79
2019-01-09T20:41:39.256Z,96825.26
2019-01-09T20:44:48.133Z,96824.41
2019-01-09T20:47:55.198Z,96831.55
2019-01-09T20:51:02.567Z,96826.08
2019-01-09T20:54:09.770Z,96835.73
2019-01-09T20:57:20.051Z,96844.53
2019-01-09T21:00:29.730Z,96838.25
2019-01-09T21:03:39.579Z,96839.09
2019-01-09T21:06:46.562Z,96848.72
2019-01-09T21:09:53.599Z,96846.64
2019-01-09T21:13:05.047Z,96853.74
2019-01-09T21:16:12.293Z,96849.56
2019-01-09T21:19:21.673Z,96857.11
2019-01-09T21:22:28.787Z,96859.22
2019-01-09T21:25:38.448Z,96860.03
2019-01-09T21:28:45.530Z,96862.95
2019-01-09T21:31:52.512Z,96860.44
2019-01-09T21:35:01.160Z,96869.69
2019-01-09T21:38:09.207Z,96862.55
2019-01-09T21:41:16.226Z,96873.02
2019-01-09T21:44:23.247Z,96878.05
2019-01-09T21:47:30.360Z,96888.97
2019-01-09T21:50:38.036Z,96890.63
2019-01-09T21:53:46.243Z,96896.52
2019-01-09T21:56:53.253Z,96902.40
2019-01-09T22:00:02.286Z,96900.70
2019-01-09T22:03:10.557Z,96899.03
2019-01-09T22:06:20.810Z,96911.61
2019-01-09T22:09:27.909Z,96915.80
2019-01-09T22:12:35.068Z,96916.64
2019-01-09T22:15:43.223Z,96917.06
2019-01-09T22:18:50.471Z,96922.94
2019-01-09T22:21:57.621Z,96933.41
2019-01-09T22:25:09.246Z,96932.59
2019-01-09T22:28:15.917Z,96935.94
2019-01-09T22:31:22.964Z,96943.48
2019-01-09T22:34:30.042Z,96943.92
2019-01-09T22:37:37.136Z,96942.22
2019-01-09T22:40:45.208Z,96946.85
2019-01-09T22:43:52.185Z,96954.81
2019-01-09T22:47:00.762Z,96960.28
2019-01-09T22:50:10.820Z,96964.06
2019-01-09T22:53:17.830Z,96963.62
2019-01-09T22:56:25.251Z,96962.36
2019-01-09T22:59:32.240Z,96967.84
2019-01-09T23:02:39.217Z,96972.43
2019-01-09T23:05:47.893Z,96971.17
2019-01-09T23:08:55.133Z,96979.16
2019-01-09T23:12:02.672Z,96983.34
2019-01-09T23:15:10.962Z,96982.09
2019-01-09T23:18:19.204Z,96980.83
2019-01-09T23:21:26.313Z,96990.05
2019-01-09T23:24:33.577Z,96985.88
2019-01-09T23:27:40.591Z,96984.61
2019-01-09T23:30:47.642Z,96988.80
2019-01-09T23:33:54.877Z,96994.69
2019-01-09T23:37:01.806Z,97003.05
2019-01-09T23:40:09.787Z,97003.49
2019-01-09T23:43:16.929Z,97009.34
2019-01-09T23:46:23.967Z,97008.53
2019-01-09T23:49:31.002Z,97011.45
2019-01-09T23:52:38.033Z,97019.42
2019-01-09T23:55:45.113Z,97018.59
2019-01-09T23:58:52.550Z,97016.90
